Time;durP1;ratioP1;P1;durP2;ratioP2;P2;SDS_P1;SDS_P2;PMS_P1;PMS_P2;Temp;Humidity;BMP_temperature;BMP_pressure;BME280_temperature;BME280_humidity;BME280_pressure;Samples;Min_cycle;Max_cycle;Signal;HPM_P1;HPM_P2
2021/09/05 00:00:04;;;;;;;57.93;37.43;;;;;;;;;;775332;179;619056;-72
2021/09/05 00:02:30;;;;;;;52.33;34.47;;;;;;;;;;771935;180;625759;-73
2021/09/05 00:04:56;;;;;;;52.50;37.27;;;;;;;;;;775700;180;624107;-72
2021/09/05 00:07:22;;;;;;;55.33;36.70;;;;;;;;;;771276;180;625161;-72
2021/09/05 00:09:47;;;;;;;63.03;39.57;;;;;;;;;;768146;181;636383;-72
2021/09/05 00:12:13;;;;;;;61.20;39.20;;;;;;;;;;769315;180;628530;-70
2021/09/05 00:14:39;;;;;;;58.40;38.17;;;;;;;;;;773683;180;623169;-74
2021/09/05 00:17:05;;;;;;;60.67;37.70;;;;;;;;;;772867;180;633360;-74
2021/09/05 00:19:31;;;;;;;53.00;35.80;;;;;;;;;;768008;181;620106;-73
2021/09/05 00:21:57;;;;;;;55.57;36.63;;;;;;;;;;774848;180;633467;-73
2021/09/05 00:24:23;;;;;;;48.67;35.10;;;;;;;;;;771946;180;624627;-72
2021/09/05 00:26:49;;;;;;;53.78;35.65;;;;;;;;;;767756;180;914541;-72
2021/09/05 00:29:14;;;;;;;50.97;34.83;;;;;;;;;;771621;180;919121;-72
2021/09/05 00:31:40;;;;;;;57.23;34.90;;;;;;;;;;764725;180;918914;-71
2021/09/05 00:34:06;;;;;;;56.40;34.43;;;;;;;;;;773998;180;625804;-72
2021/09/05 00:36:32;;;;;;;53.67;35.47;;;;;;;;;;771001;180;633262;-72
2021/09/05 00:38:58;;;;;;;48.70;34.87;;;;;;;;;;770331;183;624081;-72
2021/09/05 00:41:24;;;;;;;48.87;34.50;;;;;;;;;;770468;180;642363;-71
2021/09/05 00:43:50;;;;;;;50.93;34.87;;;;;;;;;;770007;180;652791;-71
2021/09/05 00:46:16;;;;;;;55.40;35.43;;;;;;;;;;776937;180;621568;-71
2021/09/05 00:48:42;;;;;;;53.20;34.10;;;;;;;;;;772800;180;629005;-71
2021/09/05 00:51:08;;;;;;;55.03;32.30;;;;;;;;;;773436;180;621159;-73
2021/09/05 00:53:34;;;;;;;55.57;35.13;;;;;;;;;;777609;180;686525;-72
2021/09/05 00:55:59;;;;;;;44.63;30.93;;;;;;;;;;770011;180;632654;-73
2021/09/05 00:58:25;;;;;;;45.70;32.50;;;;;;;;;;772757;180;919114;-71
2021/09/05 01:00:51;;;;;;;55.88;37.13;;;;;;;;;;770369;180;670412;-70
2021/09/05 01:03:17;;;;;;;50.07;32.90;;;;;;;;;;767153;183;628052;-71
2021/09/05 01:05:43;;;;;;;48.27;33.53;;;;;;;;;;773891;180;620075;-72
2021/09/05 01:08:09;;;;;;;52.73;31.47;;;;;;;;;;769174;180;633552;-72
2021/09/05 01:10:35;;;;;;;51.03;34.83;;;;;;;;;;779137;179;619995;-72
2021/09/05 01:13:01;;;;;;;43.80;32.90;;;;;;;;;;774826;180;634813;-71
2021/09/05 01:15:26;;;;;;;59.47;34.80;;;;;;;;;;770279;180;893829;-71
2021/09/05 01:17:52;;;;;;;45.97;32.27;;;;;;;;;;772973;180;627592;-71
2021/09/05 01:20:18;;;;;;;57.17;34.97;;;;;;;;;;771070;180;630088;-72
2021/09/05 01:22:44;;;;;;;55.70;34.57;;;;;;;;;;769717;179;642812;-73
2021/09/05 01:25:10;;;;;;;56.43;34.63;;;;;;;;;;775631;180;624645;-71
2021/09/05 01:27:36;;;;;;;51.80;34.00;;;;;;;;;;771561;180;628182;-71
2021/09/05 01:30:02;;;;;;;54.90;34.43;;;;;;;;;;770527;180;917843;-71
2021/09/05 01:32:27;;;;;;;51.90;35.90;;;;;;;;;;770560;180;630024;-72
2021/09/05 01:34:53;;;;;;;47.17;33.13;;;;;;;;;;776385;180;634356;-71
2021/09/05 01:37:19;;;;;;;52.13;30.77;;;;;;;;;;770106;180;740642;-71
2021/09/05 01:39:45;;;;;;;52.17;33.37;;;;;;;;;;769531;180;644555;-72
2021/09/05 01:42:11;;;;;;;51.70;34.60;;;;;;;;;;774511;180;623404;-72
2021/09/05 01:44:37;;;;;;;53.80;34.37;;;;;;;;;;770318;180;617709;-73
2021/09/05 01:47:03;;;;;;;45.37;32.03;;;;;;;;;;772517;180;635897;-71
2021/09/05 01:49:28;;;;;;;48.20;33.23;;;;;;;;;;772887;180;634154;-72
2021/09/05 01:51:54;;;;;;;55.23;33.23;;;;;;;;;;764090;181;623881;-71
2021/09/05 01:54:20;;;;;;;53.03;34.17;;;;;;;;;;771898;181;619277;-72
2021/09/05 01:56:46;;;;;;;50.70;34.23;;;;;;;;;;771173;180;640251;-71
2021/09/05 01:59:12;;;;;;;49.75;33.05;;;;;;;;;;775950;180;918579;-72
2021/09/05 02:01:38;;;;;;;54.60;35.50;;;;;;;;;;769096;180;617901;-72
2021/09/05 02:04:05;;;;;;;58.63;36.57;;;;;;;;;;771308;180;635766;-72
2021/09/05 02:06:29;;;;;;;56.90;35.03;;;;;;;;;;774914;180;624315;-72
2021/09/05 02:08:55;;;;;;;58.67;35.03;;;;;;;;;;767874;180;630864;-72
2021/09/05 02:11:21;;;;;;;48.63;30.97;;;;;;;;;;771309;181;628711;-72
2021/09/05 02:13:47;;;;;;;48.87;30.17;;;;;;;;;;774124;181;732924;-71
2021/09/05 02:16:13;;;;;;;48.33;32.57;;;;;;;;;;770147;180;637372;-72
2021/09/05 02:18:39;;;;;;;43.80;29.47;;;;;;;;;;773649;180;630304;-72
2021/09/05 02:21:04;;;;;;;43.43;27.93;;;;;;;;;;773236;180;640002;-72
2021/09/05 02:23:30;;;;;;;40.03;26.57;;;;;;;;;;764617;181;609317;-72
2021/09/05 02:25:56;;;;;;;36.20;24.27;;;;;;;;;;772841;180;913986;-73
2021/09/05 02:28:22;;;;;;;34.90;24.93;;;;;;;;;;776230;180;622395;-72
2021/09/05 02:30:48;;;;;;;33.20;22.80;;;;;;;;;;767929;180;636641;-72
2021/09/05 02:33:14;;;;;;;42.30;27.13;;;;;;;;;;769681;180;630631;-72
2021/09/05 02:35:39;;;;;;;43.67;26.73;;;;;;;;;;777058;180;622671;-71
2021/09/05 02:38:05;;;;;;;50.40;32.10;;;;;;;;;;773225;180;618073;-72
2021/09/05 02:40:31;;;;;;;53.87;32.07;;;;;;;;;;775864;180;622056;-70
2021/09/05 02:42:57;;;;;;;53.80;33.60;;;;;;;;;;771338;180;631800;-71
2021/09/05 02:45:23;;;;;;;58.67;34.87;;;;;;;;;;773773;180;628052;-70
2021/09/05 02:47:49;;;;;;;66.60;35.60;;;;;;;;;;768446;180;626328;-71
2021/09/05 02:50:14;;;;;;;60.97;35.37;;;;;;;;;;772249;180;641266;-70
2021/09/05 02:52:40;;;;;;;57.90;34.57;;;;;;;;;;771945;180;632264;-71
2021/09/05 02:55:06;;;;;;;58.90;35.17;;;;;;;;;;770945;181;636667;-73
2021/09/05 02:57:32;;;;;;;66.93;35.87;;;;;;;;;;767005;180;629027;-70
2021/09/05 02:59:58;;;;;;;60.37;36.53;;;;;;;;;;764866;181;917990;-72
2021/09/05 03:02:24;;;;;;;65.50;36.37;;;;;;;;;;772120;180;620946;-71
2021/09/05 03:04:51;;;;;;;54.57;33.20;;;;;;;;;;769985;181;627996;-72
2021/09/05 03:07:17;;;;;;;65.13;38.37;;;;;;;;;;774802;180;632779;-71
2021/09/05 03:09:43;;;;;;;55.20;32.40;;;;;;;;;;775131;180;609044;-70
2021/09/05 03:12:09;;;;;;;57.20;35.53;;;;;;;;;;769846;180;623775;-71
2021/09/05 03:14:34;;;;;;;60.67;34.80;;;;;;;;;;771101;181;619105;-71
2021/09/05 03:17:00;;;;;;;52.53;34.17;;;;;;;;;;774435;180;622084;-70
2021/09/05 03:19:26;;;;;;;59.33;34.93;;;;;;;;;;766950;180;630618;-70
2021/09/05 03:21:52;;;;;;;55.20;34.10;;;;;;;;;;767143;181;640820;-70
2021/09/05 03:24:18;;;;;;;56.63;35.03;;;;;;;;;;763720;181;918988;-70
2021/09/05 03:26:44;;;;;;;56.00;34.33;;;;;;;;;;773088;180;918753;-70
2021/09/05 03:29:09;;;;;;;55.27;32.80;;;;;;;;;;772748;180;629011;-72
2021/09/05 03:31:35;;;;;;;58.33;33.43;;;;;;;;;;767842;180;670566;-71
2021/09/05 03:34:01;;;;;;;54.07;31.97;;;;;;;;;;778857;179;632138;-70
2021/09/05 03:36:27;;;;;;;53.03;31.87;;;;;;;;;;774056;180;630093;-71
2021/09/05 03:38:53;;;;;;;53.90;32.10;;;;;;;;;;779963;179;629512;-71
2021/09/05 03:41:19;;;;;;;54.97;30.23;;;;;;;;;;774314;180;918280;-69
2021/09/05 03:43:44;;;;;;;50.27;27.40;;;;;;;;;;770128;180;917758;-70
2021/09/05 03:46:10;;;;;;;52.43;29.90;;;;;;;;;;775133;180;658049;-70
2021/09/05 03:48:36;;;;;;;50.43;27.83;;;;;;;;;;772513;180;629735;-72
2021/09/05 03:51:02;;;;;;;50.90;27.60;;;;;;;;;;773660;180;632734;-70
2021/09/05 03:53:28;;;;;;;47.30;27.70;;;;;;;;;;769256;180;616057;-69
2021/09/05 03:55:54;;;;;;;53.63;27.77;;;;;;;;;;770678;181;627533;-70
2021/09/05 03:58:20;;;;;;;43.47;25.67;;;;;;;;;;774362;180;628704;-69
2021/09/05 04:00:45;;;;;;;50.27;29.00;;;;;;;;;;771885;180;630221;-70
2021/09/05 04:03:11;;;;;;;43.27;26.97;;;;;;;;;;766006;180;631585;-70
2021/09/05 04:05:37;;;;;;;48.03;26.12;;;;;;;;;;771323;180;624987;-69
2021/09/05 04:08:14;;;;;;;43.30;24.50;;;;;;;;;;765709;181;625346;-70
2021/09/05 04:10:40;;;;;;;53.50;26.90;;;;;;;;;;775619;180;629513;-69
2021/09/05 04:13:06;;;;;;;40.97;25.43;;;;;;;;;;773165;180;623746;-70
2021/09/05 04:15:32;;;;;;;46.70;24.40;;;;;;;;;;776244;180;626878;-71
2021/09/05 04:17:57;;;;;;;40.13;25.07;;;;;;;;;;769311;180;635971;-69
2021/09/05 04:20:23;;;;;;;51.13;25.97;;;;;;;;;;774850;179;646569;-70
2021/09/05 04:22:49;;;;;;;38.97;22.70;;;;;;;;;;772286;180;631578;-70
2021/09/05 04:25:15;;;;;;;42.27;25.00;;;;;;;;;;774670;180;625364;-70
2021/09/05 04:27:41;;;;;;;42.17;23.40;;;;;;;;;;774404;180;633096;-70
2021/09/05 04:30:07;;;;;;;42.65;23.38;;;;;;;;;;770453;180;915907;-69
2021/09/05 04:32:33;;;;;;;45.13;24.20;;;;;;;;;;776822;180;626899;-70
2021/09/05 04:35:00;;;;;;;39.30;24.03;;;;;;;;;;769088;180;676588;-72
2021/09/05 04:37:25;;;;;;;37.50;23.97;;;;;;;;;;770092;180;631153;-70
2021/09/05 04:39:50;;;;;;;36.50;21.37;;;;;;;;;;774843;180;635388;-69
2021/09/05 04:42:16;;;;;;;48.03;24.20;;;;;;;;;;768385;180;623784;-71
2021/09/05 04:44:42;;;;;;;38.33;23.47;;;;;;;;;;769030;180;623753;-70
2021/09/05 04:47:08;;;;;;;36.90;21.40;;;;;;;;;;772704;178;616755;-69
2021/09/05 04:49:34;;;;;;;37.67;22.07;;;;;;;;;;776608;180;625260;-71
2021/09/05 04:52:00;;;;;;;35.30;21.13;;;;;;;;;;772694;180;631212;-70
2021/09/05 04:54:25;;;;;;;39.10;22.10;;;;;;;;;;772805;180;636712;-70
2021/09/05 04:56:51;;;;;;;39.27;23.67;;;;;;;;;;776427;180;619380;-70
2021/09/05 04:59:17;;;;;;;38.53;22.00;;;;;;;;;;773156;180;624300;-70
2021/09/05 05:01:43;;;;;;;42.70;23.47;;;;;;;;;;769924;180;921032;-71
2021/09/05 05:04:09;;;;;;;39.40;22.10;;;;;;;;;;775100;180;919236;-70
2021/09/05 05:06:35;;;;;;;39.17;23.53;;;;;;;;;;770416;180;647976;-70
2021/09/05 05:09:00;;;;;;;41.17;22.57;;;;;;;;;;772701;180;625512;-71
2021/09/05 05:11:26;;;;;;;39.43;22.13;;;;;;;;;;772178;180;625083;-71
2021/09/05 05:13:52;;;;;;;37.90;24.53;;;;;;;;;;764781;180;628843;-70
2021/09/05 05:16:18;;;;;;;36.83;21.40;;;;;;;;;;773471;180;628923;-69
2021/09/05 05:18:44;;;;;;;39.40;20.90;;;;;;;;;;773126;180;633505;-70
2021/09/05 05:21:10;;;;;;;37.13;22.27;;;;;;;;;;771012;180;626323;-70
2021/09/05 05:23:35;;;;;;;36.50;20.67;;;;;;;;;;769321;180;618481;-70
2021/09/05 05:26:01;;;;;;;32.30;20.70;;;;;;;;;;770885;180;628048;-71
2021/09/05 05:28:27;;;;;;;33.47;19.37;;;;;;;;;;775826;180;618590;-71
2021/09/05 05:30:53;;;;;;;29.70;18.50;;;;;;;;;;771517;180;919338;-72
2021/09/05 05:33:19;;;;;;;35.60;18.70;;;;;;;;;;765155;180;919046;-72
2021/09/05 05:35:45;;;;;;;34.23;19.90;;;;;;;;;;771571;180;918204;-69
2021/09/05 05:38:11;;;;;;;33.33;18.30;;;;;;;;;;765409;182;628271;-70
2021/09/05 05:40:37;;;;;;;32.23;19.50;;;;;;;;;;771935;180;628700;-72
2021/09/05 05:43:03;;;;;;;33.50;18.80;;;;;;;;;;768831;180;635079;-71
2021/09/05 05:45:29;;;;;;;38.00;19.30;;;;;;;;;;774200;180;635094;-70
2021/09/05 05:47:54;;;;;;;34.07;17.83;;;;;;;;;;772479;180;618579;-70
2021/09/05 05:50:20;;;;;;;36.57;18.90;;;;;;;;;;770842;180;619902;-70
2021/09/05 05:52:46;;;;;;;29.60;17.73;;;;;;;;;;775974;180;633533;-70
2021/09/05 05:55:12;;;;;;;31.27;19.13;;;;;;;;;;772397;180;646042;-70
2021/09/05 05:57:38;;;;;;;34.80;17.50;;;;;;;;;;776883;180;625103;-71
2021/09/05 06:00:04;;;;;;;26.70;16.40;;;;;;;;;;772281;180;620753;-70
2021/09/05 06:02:30;;;;;;;29.73;18.77;;;;;;;;;;767460;180;918474;-70
2021/09/05 06:04:56;;;;;;;31.30;17.30;;;;;;;;;;765291;180;916233;-70
2021/09/05 06:07:21;;;;;;;33.77;18.77;;;;;;;;;;771044;180;633916;-71
2021/09/05 06:09:48;;;;;;;38.77;19.80;;;;;;;;;;778184;180;632727;-69
2021/09/05 06:12:13;;;;;;;34.10;19.37;;;;;;;;;;768311;180;621779;-71
2021/09/05 06:14:39;;;;;;;27.47;18.50;;;;;;;;;;769004;180;625417;-71
2021/09/05 06:17:05;;;;;;;41.67;19.47;;;;;;;;;;777800;180;624514;-70
2021/09/05 06:19:31;;;;;;;29.93;18.17;;;;;;;;;;768959;180;635859;-72
2021/09/05 06:21:57;;;;;;;35.37;18.67;;;;;;;;;;771833;180;626021;-71
2021/09/05 06:24:23;;;;;;;29.67;18.70;;;;;;;;;;774838;180;630728;-70
2021/09/05 06:26:48;;;;;;;23.57;16.17;;;;;;;;;;769658;180;633608;-72
2021/09/05 06:29:14;;;;;;;27.27;15.63;;;;;;;;;;771732;180;617444;-69
2021/09/05 06:31:40;;;;;;;24.30;15.50;;;;;;;;;;769616;180;616919;-70
2021/09/05 06:34:06;;;;;;;29.53;15.73;;;;;;;;;;773378;180;627711;-71
2021/09/05 06:36:32;;;;;;;21.90;14.17;;;;;;;;;;768821;180;638765;-71
2021/09/05 06:38:58;;;;;;;29.33;17.10;;;;;;;;;;768368;180;644284;-70
2021/09/05 06:41:23;;;;;;;27.40;14.27;;;;;;;;;;775329;180;616911;-71
2021/09/05 06:43:49;;;;;;;22.93;12.40;;;;;;;;;;770946;180;626091;-72
2021/09/05 06:46:15;;;;;;;24.47;12.87;;;;;;;;;;760974;180;706810;-70
2021/09/05 06:48:41;;;;;;;22.90;14.23;;;;;;;;;;776176;180;625149;-70
2021/09/05 06:51:18;;;;;;;24.17;13.50;;;;;;;;;;771607;180;637442;-73
2021/09/05 06:53:44;;;;;;;25.77;15.23;;;;;;;;;;769713;180;635966;-71
2021/09/05 06:56:10;;;;;;;27.13;15.40;;;;;;;;;;772791;180;628600;-70
2021/09/05 06:58:36;;;;;;;30.87;15.00;;;;;;;;;;777647;180;619388;-71
2021/09/05 07:01:02;;;;;;;19.17;14.13;;;;;;;;;;774156;180;628026;-73
2021/09/05 07:03:28;;;;;;;21.97;13.23;;;;;;;;;;769717;180;621402;-73
2021/09/05 07:05:54;;;;;;;20.70;13.83;;;;;;;;;;771753;180;623812;-71
2021/09/05 07:08:20;;;;;;;25.90;13.27;;;;;;;;;;766886;182;626906;-70
2021/09/05 07:10:45;;;;;;;22.20;13.33;;;;;;;;;;775393;180;625034;-71
2021/09/05 07:13:11;;;;;;;21.77;13.03;;;;;;;;;;766564;181;628075;-71
2021/09/05 07:15:37;;;;;;;29.47;14.03;;;;;;;;;;777724;180;613347;-71
2021/09/05 07:18:03;;;;;;;24.87;13.23;;;;;;;;;;765621;180;631310;-70
2021/09/05 07:20:29;;;;;;;22.20;13.53;;;;;;;;;;770229;180;629527;-71
2021/09/05 07:22:55;;;;;;;24.13;12.87;;;;;;;;;;777278;180;639756;-70
2021/09/05 07:25:21;;;;;;;20.47;12.67;;;;;;;;;;773302;180;619068;-70
2021/09/05 07:27:46;;;;;;;19.97;13.50;;;;;;;;;;774357;180;624589;-72
2021/09/05 07:30:12;;;;;;;25.97;14.53;;;;;;;;;;776703;180;617523;-71
2021/09/05 07:32:38;;;;;;;18.80;12.57;;;;;;;;;;768085;183;919448;-71
2021/09/05 07:35:05;;;;;;;20.87;13.07;;;;;;;;;;773133;180;625389;-70
2021/09/05 07:37:30;;;;;;;23.93;13.40;;;;;;;;;;770429;180;642338;-71
2021/09/05 07:39:56;;;;;;;21.33;12.13;;;;;;;;;;774409;180;638413;-72
2021/09/05 07:42:22;;;;;;;18.23;12.10;;;;;;;;;;769842;180;619816;-70
2021/09/05 07:44:48;;;;;;;21.63;12.37;;;;;;;;;;765770;181;622500;-73
2021/09/05 07:47:14;;;;;;;22.60;13.57;;;;;;;;;;778097;180;618508;-70
2021/09/05 07:49:40;;;;;;;18.00;11.50;;;;;;;;;;772676;180;624150;-72
2021/09/05 07:52:06;;;;;;;19.17;12.70;;;;;;;;;;772459;180;632319;-71
2021/09/05 07:54:31;;;;;;;25.03;12.87;;;;;;;;;;773685;180;634121;-71
2021/09/05 07:56:57;;;;;;;19.97;12.47;;;;;;;;;;773469;180;629768;-73
2021/09/05 07:59:23;;;;;;;24.97;12.37;;;;;;;;;;766135;180;624547;-71
2021/09/05 08:01:49;;;;;;;23.07;10.57;;;;;;;;;;773328;180;626015;-72
2021/09/05 08:04:15;;;;;;;20.27;12.30;;;;;;;;;;774270;180;619770;-73
2021/09/05 08:06:41;;;;;;;19.40;11.57;;;;;;;;;;768943;180;627202;-72
2021/09/05 08:09:06;;;;;;;19.17;12.53;;;;;;;;;;769524;181;773982;-72
2021/09/05 08:11:32;;;;;;;22.53;12.87;;;;;;;;;;775863;180;627521;-74
2021/09/05 08:13:58;;;;;;;22.00;13.30;;;;;;;;;;769374;180;676478;-73
2021/09/05 08:16:24;;;;;;;22.80;13.30;;;;;;;;;;770523;180;625276;-70
2021/09/05 08:18:50;;;;;;;23.50;13.03;;;;;;;;;;773324;181;615135;-73
2021/09/05 08:21:16;;;;;;;17.07;11.00;;;;;;;;;;772263;180;618352;-74
2021/09/05 08:23:42;;;;;;;19.90;12.33;;;;;;;;;;773276;180;616322;-76
2021/09/05 08:26:10;;;;;;;20.97;13.63;;;;;;;;;;771392;180;628354;-73
2021/09/05 08:28:33;;;;;;;19.73;13.30;;;;;;;;;;764067;180;632361;-69
2021/09/05 08:30:59;;;;;;;19.20;11.83;;;;;;;;;;767165;181;623841;-72
2021/09/05 08:33:25;;;;;;;19.07;11.33;;;;;;;;;;766129;181;631378;-70
2021/09/05 08:35:51;;;;;;;19.07;12.90;;;;;;;;;;776460;180;620205;-70
2021/09/05 08:38:17;;;;;;;21.07;13.57;;;;;;;;;;771697;179;621400;-70
2021/09/05 08:40:42;;;;;;;27.00;14.37;;;;;;;;;;773621;180;629668;-69
2021/09/05 08:43:08;;;;;;;21.73;13.60;;;;;;;;;;776823;180;626896;-70
2021/09/05 08:45:34;;;;;;;21.53;14.30;;;;;;;;;;771725;180;619055;-74
2021/09/05 08:48:00;;;;;;;22.77;13.80;;;;;;;;;;771067;180;624869;-71
2021/09/05 08:50:26;;;;;;;23.85;15.80;;;;;;;;;;772046;180;629295;-70
2021/09/05 08:52:52;;;;;;;26.03;16.60;;;;;;;;;;769962;180;635080;-70
2021/09/05 08:55:18;;;;;;;22.40;13.93;;;;;;;;;;776274;179;629333;-72
2021/09/05 08:57:44;;;;;;;28.10;15.40;;;;;;;;;;772930;180;623733;-72
2021/09/05 09:00:10;;;;;;;20.13;14.40;;;;;;;;;;777583;180;636012;-73
2021/09/05 09:02:42;;;;;;;24.50;15.17;;;;;;;;;;768029;180;642966;-72
2021/09/05 09:05:08;;;;;;;21.63;15.00;;;;;;;;;;768833;179;632692;-71
2021/09/05 09:07:34;;;;;;;24.20;15.40;;;;;;;;;;769667;180;634344;-73
2021/09/05 09:09:59;;;;;;;26.03;16.07;;;;;;;;;;768401;183;633841;-73
2021/09/05 09:12:31;;;;;;;23.37;14.80;;;;;;;;;;772467;180;647619;-74
2021/09/05 09:14:57;;;;;;;23.80;16.40;;;;;;;;;;770467;180;714634;-71
2021/09/05 09:17:23;;;;;;;25.60;15.90;;;;;;;;;;775898;180;627231;-71
2021/09/05 09:19:49;;;;;;;27.57;16.80;;;;;;;;;;771800;180;623859;-72
2021/09/05 09:22:15;;;;;;;22.77;16.23;;;;;;;;;;770573;180;636579;-74
2021/09/05 09:24:41;;;;;;;21.45;15.80;;;;;;;;;;772363;180;617742;-71
2021/09/05 09:27:07;;;;;;;28.77;18.50;;;;;;;;;;767400;180;636292;-70
2021/09/05 09:29:32;;;;;;;24.10;16.50;;;;;;;;;;770551;180;630036;-72
2021/09/05 09:32:13;;;;;;;27.90;18.90;;;;;;;;;;771290;179;630375;-73
2021/09/05 09:34:39;;;;;;;29.50;18.27;;;;;;;;;;768521;180;656932;-71
2021/09/05 09:37:05;;;;;;;20.77;14.53;;;;;;;;;;777548;180;624240;-71
2021/09/05 09:39:31;;;;;;;32.07;17.40;;;;;;;;;;774482;179;649260;-73
2021/09/05 09:41:57;;;;;;;23.30;16.33;;;;;;;;;;771999;180;627121;-72
2021/09/05 09:44:23;;;;;;;29.63;16.80;;;;;;;;;;776980;180;640189;-74
2021/09/05 09:46:49;;;;;;;24.20;17.63;;;;;;;;;;769197;180;618937;-72
2021/09/05 09:49:14;;;;;;;28.77;17.13;;;;;;;;;;771268;180;623687;-70
2021/09/05 09:51:40;;;;;;;23.70;17.57;;;;;;;;;;774740;180;612151;-74
2021/09/05 09:54:06;;;;;;;32.13;17.20;;;;;;;;;;771378;180;625498;-73
2021/09/05 09:56:32;;;;;;;26.70;16.93;;;;;;;;;;773502;180;627521;-73
2021/09/05 09:58:58;;;;;;;39.93;18.20;;;;;;;;;;769618;180;630096;-72
2021/09/05 10:01:24;;;;;;;23.37;14.93;;;;;;;;;;773249;180;638402;-71
2021/09/05 10:03:50;;;;;;;27.57;16.93;;;;;;;;;;753862;181;3625081;-73
2021/09/05 10:06:16;;;;;;;26.20;15.37;;;;;;;;;;770894;180;629213;-75
2021/09/05 10:08:43;;;;;;;25.23;15.93;;;;;;;;;;775024;180;627775;-72
2021/09/05 10:11:10;;;;;;;22.37;15.87;;;;;;;;;;769380;179;634961;-75
2021/09/05 10:13:35;;;;;;;28.63;15.97;;;;;;;;;;769333;180;629158;-75
2021/09/05 10:16:01;;;;;;;27.23;14.73;;;;;;;;;;775962;180;626956;-71
2021/09/05 10:18:27;;;;;;;24.83;14.07;;;;;;;;;;772213;180;635894;-73
2021/09/05 10:20:53;;;;;;;28.67;15.13;;;;;;;;;;769857;180;618516;-72
2021/09/05 10:23:33;;;;;;;24.07;13.10;;;;;;;;;;767970;180;630776;-72
2021/09/05 10:26:10;;;;;;;26.07;14.47;;;;;;;;;;769518;180;643360;-72
2021/09/05 10:28:35;;;;;;;22.30;14.13;;;;;;;;;;771278;180;620510;-74
2021/09/05 10:31:01;;;;;;;22.77;15.17;;;;;;;;;;770763;180;620612;-73
2021/09/05 10:33:30;;;;;;;32.40;13.57;;;;;;;;;;772668;180;628895;-73
2021/09/05 10:35:56;;;;;;;27.67;15.50;;;;;;;;;;767046;180;723074;-71
2021/09/05 10:38:25;;;;;;;21.77;14.20;;;;;;;;;;772013;180;637192;-72
2021/09/05 10:40:54;;;;;;;23.07;14.20;;;;;;;;;;769944;180;652884;-73
2021/09/05 10:43:19;;;;;;;24.23;15.47;;;;;;;;;;773300;179;640725;-72
2021/09/05 10:45:46;;;;;;;23.93;14.30;;;;;;;;;;776219;180;639071;-75
2021/09/05 10:48:18;;;;;;;28.07;14.17;;;;;;;;;;767051;182;640434;-72
2021/09/05 10:50:44;;;;;;;25.40;13.90;;;;;;;;;;776044;180;629674;-70
2021/09/05 10:53:12;;;;;;;22.50;11.30;;;;;;;;;;773382;180;627971;-72
2021/09/05 10:55:53;;;;;;;20.20;11.13;;;;;;;;;;773575;180;623821;-76
2021/09/05 10:58:19;;;;;;;18.50;10.87;;;;;;;;;;772728;182;623641;-76
2021/09/05 11:00:45;;;;;;;19.00;10.90;;;;;;;;;;771288;180;618387;-76
2021/09/05 11:03:11;;;;;;;14.50;9.20;;;;;;;;;;771020;180;624867;-72
2021/09/05 11:05:36;;;;;;;18.53;9.10;;;;;;;;;;774298;180;626963;-72
2021/09/05 11:08:08;;;;;;;17.90;9.90;;;;;;;;;;771004;180;633490;-73
2021/09/05 11:10:40;;;;;;;17.43;9.43;;;;;;;;;;771528;180;642745;-71
2021/09/05 11:13:06;;;;;;;15.73;8.10;;;;;;;;;;771069;180;630620;-74
2021/09/05 11:15:31;;;;;;;16.53;9.20;;;;;;;;;;771328;180;637612;-71
2021/09/05 11:17:57;;;;;;;15.57;8.63;;;;;;;;;;770710;180;638937;-72
2021/09/05 11:20:23;;;;;;;11.70;7.20;;;;;;;;;;768349;180;620318;-72
2021/09/05 11:22:49;;;;;;;13.07;8.70;;;;;;;;;;772025;180;655868;-73
2021/09/05 11:25:25;;;;;;;17.80;7.70;;;;;;;;;;776842;180;634928;-73
2021/09/05 11:27:53;;;;;;;14.50;8.20;;;;;;;;;;771867;180;627616;-73
2021/09/05 11:30:19;;;;;;;16.67;7.57;;;;;;;;;;771830;180;644367;-72
2021/09/05 11:32:45;;;;;;;15.60;8.03;;;;;;;;;;771926;180;623257;-73
2021/09/05 11:35:11;;;;;;;12.07;7.43;;;;;;;;;;775075;180;626776;-72
2021/09/05 11:37:37;;;;;;;13.60;7.67;;;;;;;;;;772284;180;633511;-72
2021/09/05 11:40:03;;;;;;;12.60;7.47;;;;;;;;;;770179;180;642024;-72
2021/09/05 11:42:31;;;;;;;14.23;7.00;;;;;;;;;;769078;180;624541;-73
2021/09/05 11:45:00;;;;;;;12.37;6.90;;;;;;;;;;772021;180;633596;-74
2021/09/05 11:47:26;;;;;;;10.07;6.47;;;;;;;;;;770536;180;634500;-73
2021/09/05 11:49:52;;;;;;;12.00;7.63;;;;;;;;;;772641;180;620909;-75
2021/09/05 11:52:17;;;;;;;9.77;7.00;;;;;;;;;;774225;180;646738;-73
2021/09/05 11:54:43;;;;;;;13.37;8.20;;;;;;;;;;770261;179;626161;-71
2021/09/05 11:57:09;;;;;;;13.27;7.00;;;;;;;;;;771514;180;631366;-74
2021/09/05 11:59:35;;;;;;;15.13;6.60;;;;;;;;;;777122;180;676966;-73
2021/09/05 12:02:01;;;;;;;9.80;7.07;;;;;;;;;;772484;180;618634;-73
2021/09/05 12:04:27;;;;;;;12.33;7.17;;;;;;;;;;768810;180;639737;-70
2021/09/05 12:06:52;;;;;;;15.60;6.43;;;;;;;;;;774010;180;631418;-72
2021/09/05 12:09:24;;;;;;;27.57;7.50;;;;;;;;;;770268;181;615501;-73
2021/09/05 12:11:53;;;;;;;11.30;6.57;;;;;;;;;;769624;179;640182;-73
2021/09/05 12:14:24;;;;;;;11.33;6.90;;;;;;;;;;767641;180;912801;-71
2021/09/05 12:16:50;;;;;;;14.23;6.07;;;;;;;;;;771820;181;618561;-73
2021/09/05 12:19:16;;;;;;;13.30;7.37;;;;;;;;;;772973;180;627244;-72
2021/09/05 12:21:42;;;;;;;12.33;6.20;;;;;;;;;;767703;180;643920;-72
2021/09/05 12:24:12;;;;;;;9.30;6.90;;;;;;;;;;771825;180;620894;-73
2021/09/05 12:26:38;;;;;;;15.43;8.17;;;;;;;;;;773473;180;634000;-73
2021/09/05 12:29:04;;;;;;;10.23;6.63;;;;;;;;;;772938;180;622201;-72
2021/09/05 12:31:36;;;;;;;11.87;6.57;;;;;;;;;;770050;180;651345;-72
2021/09/05 12:34:02;;;;;;;9.90;6.20;;;;;;;;;;767967;180;621441;-71
2021/09/05 12:36:27;;;;;;;8.73;6.50;;;;;;;;;;767580;180;626899;-74
2021/09/05 12:38:54;;;;;;;8.47;5.93;;;;;;;;;;769820;180;623372;-72
2021/09/05 12:41:20;;;;;;;11.37;6.80;;;;;;;;;;768010;179;651975;-73
2021/09/05 12:43:46;;;;;;;7.80;5.23;;;;;;;;;;773397;180;641371;-73
2021/09/05 12:46:12;;;;;;;10.50;6.00;;;;;;;;;;771791;180;649794;-70
2021/09/05 12:48:37;;;;;;;10.03;6.83;;;;;;;;;;767363;180;642556;-71
2021/09/05 12:51:04;;;;;;;9.80;5.93;;;;;;;;;;773309;180;632171;-71
2021/09/05 12:53:30;;;;;;;12.33;5.80;;;;;;;;;;768687;182;632596;-74
2021/09/05 12:55:56;;;;;;;10.57;6.00;;;;;;;;;;772532;180;640269;-71
2021/09/05 12:58:22;;;;;;;10.27;6.20;;;;;;;;;;770951;180;615416;-73
2021/09/05 13:00:47;;;;;;;7.27;4.43;;;;;;;;;;771617;180;632425;-73
2021/09/05 13:03:13;;;;;;;6.27;3.40;;;;;;;;;;766173;180;625270;-71
2021/09/05 13:05:39;;;;;;;11.33;3.80;;;;;;;;;;769735;178;623122;-72
2021/09/05 13:08:05;;;;;;;5.17;3.10;;;;;;;;;;776265;180;618884;-72
2021/09/05 13:10:31;;;;;;;6.37;3.97;;;;;;;;;;771253;180;627657;-71
2021/09/05 13:12:57;;;;;;;4.53;2.90;;;;;;;;;;772869;180;618436;-71
2021/09/05 13:15:23;;;;;;;6.33;3.37;;;;;;;;;;773600;181;634226;-71
2021/09/05 13:17:48;;;;;;;5.43;3.40;;;;;;;;;;772827;181;656298;-73
2021/09/05 13:20:14;;;;;;;11.20;4.17;;;;;;;;;;766866;180;1134405;-74
2021/09/05 13:22:40;;;;;;;9.20;4.20;;;;;;;;;;770163;180;648749;-71
2021/09/05 13:25:06;;;;;;;5.97;3.80;;;;;;;;;;768902;183;638133;-71
2021/09/05 13:27:32;;;;;;;11.50;3.60;;;;;;;;;;772654;180;640290;-73
2021/09/05 13:29:58;;;;;;;5.90;3.40;;;;;;;;;;773648;180;642907;-74
2021/09/05 13:32:24;;;;;;;8.13;4.30;;;;;;;;;;773827;180;627401;-73
2021/09/05 13:34:50;;;;;;;6.67;3.80;;;;;;;;;;764418;181;913648;-76
2021/09/05 13:37:16;;;;;;;9.47;3.70;;;;;;;;;;771556;180;619054;-73
2021/09/05 13:39:42;;;;;;;11.30;4.70;;;;;;;;;;770705;181;637033;-72
2021/09/05 13:42:07;;;;;;;8.40;4.00;;;;;;;;;;773720;180;665936;-73
2021/09/05 13:44:33;;;;;;;8.13;4.03;;;;;;;;;;768285;180;648354;-73
2021/09/05 13:46:59;;;;;;;11.27;3.40;;;;;;;;;;767799;180;684132;-73
2021/09/05 13:49:25;;;;;;;10.90;3.90;;;;;;;;;;767429;182;623962;-75
2021/09/05 13:51:50;;;;;;;7.80;3.90;;;;;;;;;;776605;180;631252;-70
2021/09/05 13:54:16;;;;;;;10.70;4.30;;;;;;;;;;771223;180;639242;-72
2021/09/05 13:56:42;;;;;;;7.73;4.17;;;;;;;;;;775581;180;619219;-72
2021/09/05 13:59:08;;;;;;;6.17;3.80;;;;;;;;;;770476;180;623603;-75
2021/09/05 14:01:34;;;;;;;8.03;4.60;;;;;;;;;;771974;180;658043;-73